Nixon, NV (89424)

3:14 AM PST on February 10, 2016 (GMT -0800)
Palomino Valley (Off Pyramid Highway) | | Change Station
CLOSE
Current Station
Personal Weather Station
Location: Reno, NV
Elevation: 4410 ft
Nearby Weather Stations

Elev 4410 ft 39.83 °N, 119.64 °W | Updated 4 minutes ago

Partly Cloudy
Partly Cloudy
35.1 °F
Feels Like 35 °F
N
0.0
Wind Variable Wind from East
Gusts 0.0 mph

Today
High -- | Low -- °F
--% Chance of Precip.
Yesterday
High -- | Low -- °F
Precip. -- in
Pressure 30.33 in
Visibility 10.0 miles
Clouds Few 25000 ft
Windchill 35 °F
Dew Point 31 °F
Humidity 85%
Rainfall 0.00 in
Snow Depth Not available.
6:56 AM 5:27 PM
Waxing Crescent, 5% visible
METAR KRNO 101055Z 00000KT 10SM FEW250 03/M01 A3037 RMK AO2 SLP271 T00281011
Pressure 30.33 in
Visibility 10.0 miles
Clouds Few 25000 ft
Windchill 35 °F
Dew Point 31 °F
Humidity 85%
Rainfall 0.00 in
Snow Depth Not available.
6:56 AM 5:27 PM
Waxing Crescent, 5% visible
METAR KRNO 101055Z 00000KT 10SM FEW250 03/M01 A3037 RMK AO2 SLP271 T00281011

10-Day Weather Forecast

Almanac

Astronomy

Feb. 10, 2016 Rise Set
Actual Time
Civil Twilight
Nautical Twilight
Astronomical Twilight
Moon
Length of Visible Light
Length of Day
Tomorrow will be .
, % of the Moon is Illuminated

Today's Extremes

State Highs State Lows

Community

WunderPhotos

Upload Photos

1,891,830 photos uploaded!

WunderBlog® & News

Nearby

Air Quality

  Air Quality AQ Index Pollutant
Not available.

Snow Depth

Station Depth Elevation

Earthquake Activity

City Distance Mag. Time & Date
Minimum magnitude displayed is 2.5.

Coastal Water Temperatures

Place Temperature

Stations

Nearby Weather Stations

Station Location Temp. Windchill Dew Point Humidity Wind Precip. Elev Updated Type
                   

Watches & Warnings

There are currently no watches in effect.